createdAt,value
2023-01-04T00:01:25.396Z,5.75
2023-01-04T00:03:52.503Z,5.72
2023-01-04T00:06:19.849Z,5.75
2023-01-04T00:08:46.596Z,5.67
2023-01-04T00:11:21.260Z,5.56
2023-01-04T00:13:50.246Z,5.54
2023-01-04T00:16:22.529Z,5.50
2023-01-04T00:18:50.038Z,5.41
2023-01-04T00:21:20.282Z,5.45
2023-01-04T00:23:48.777Z,5.42
2023-01-04T00:26:19.245Z,5.32
2023-01-04T00:28:53.698Z,5.28
2023-01-04T00:31:22.231Z,5.31
2023-01-04T00:33:48.926Z,5.32
2023-01-04T00:36:15.921Z,5.27
2023-01-04T00:38:42.699Z,5.23
2023-01-04T00:41:18.880Z,5.19
2023-01-04T00:43:54.863Z,5.14
2023-01-04T00:46:21.513Z,5.14
2023-01-04T00:48:49.133Z,5.08
2023-01-04T00:51:15.820Z,5.16
2023-01-04T00:53:42.432Z,5.12
2023-01-04T00:56:09.025Z,5.07
2023-01-04T00:58:35.703Z,5.10
2023-01-04T01:01:06.746Z,5.10
2023-01-04T01:03:38.450Z,5.19
2023-01-04T01:06:07.973Z,5.18
2023-01-04T01:08:34.743Z,5.19
2023-01-04T01:11:06.969Z,5.18
2023-01-04T01:13:34.187Z,5.18
2023-01-04T01:16:08.369Z,5.16
2023-01-04T01:18:35.647Z,5.16
2023-01-04T01:21:10.068Z,5.17
2023-01-04T01:23:36.932Z,5.19
2023-01-04T01:26:05.463Z,5.15
2023-01-04T01:28:33.623Z,5.09
2023-01-04T01:31:05.025Z,5.03
2023-01-04T01:33:42.309Z,5.00
2023-01-04T01:36:09.964Z,4.98
2023-01-04T01:38:37.152Z,4.92
2023-01-04T01:41:04.654Z,4.83
2023-01-04T01:43:46.155Z,4.82
2023-01-04T01:46:13.229Z,4.85
2023-01-04T01:48:40.139Z,4.75
2023-01-04T01:51:06.863Z,4.69
2023-01-04T01:53:39.749Z,4.58
2023-01-04T01:56:08.730Z,4.50
2023-01-04T01:58:38.325Z,4.43
2023-01-04T02:01:05.242Z,4.38
2023-01-04T02:03:42.912Z,4.29
2023-01-04T02:06:12.592Z,4.38
2023-01-04T02:08:40.753Z,4.31
2023-01-04T02:11:07.369Z,4.33
2023-01-04T02:13:54.492Z,4.29
2023-01-04T02:16:40.973Z,4.26
2023-01-04T02:19:22.391Z,4.29
2023-01-04T02:21:58.266Z,4.23
2023-01-04T02:24:40.877Z,4.30
2023-01-04T02:27:20.588Z,4.48
2023-01-04T02:30:01.222Z,4.53
2023-01-04T02:32:33.274Z,4.62
2023-01-04T02:35:02.890Z,5.06
2023-01-04T02:37:44.199Z,4.95
2023-01-04T02:40:21.404Z,5.00
2023-01-04T02:43:48.766Z,4.96
2023-01-04T02:46:26.107Z,4.89
2023-01-04T02:49:11.263Z,4.83
2023-01-04T02:51:38.920Z,4.74
2023-01-04T02:54:11.209Z,4.62
2023-01-04T02:57:05.259Z,4.51
2023-01-04T02:59:43.131Z,4.42
2023-01-04T03:03:01.856Z,4.23
2023-01-04T03:06:06.612Z,4.14
2023-01-04T03:08:56.901Z,4.03
2023-01-04T03:11:43.170Z,3.91
2023-01-04T03:14:31.895Z,3.79
2023-01-04T03:17:02.347Z,3.74
2023-01-04T03:19:49.447Z,3.58
2023-01-04T03:22:36.976Z,3.41
2023-01-04T03:25:23.748Z,3.27
2023-01-04T03:28:10.468Z,3.20
2023-01-04T03:31:02.017Z,3.23
2023-01-04T03:33:47.375Z,3.09
2023-01-04T03:36:19.413Z,3.07
2023-01-04T03:39:16.404Z,2.92
2023-01-04T03:42:14.798Z,2.82
2023-01-04T03:45:18.511Z,2.71
2023-01-04T03:48:21.273Z,2.65
2023-01-04T03:50:52.297Z,2.64
2023-01-04T03:53:19.550Z,2.56
2023-01-04T03:55:46.914Z,2.52
2023-01-04T03:58:13.742Z,2.46
2023-01-04T04:00:40.450Z,2.46
2023-01-04T04:03:07.879Z,2.29
2023-01-04T04:05:56.764Z,2.14
2023-01-04T04:08:29.444Z,2.15
2023-01-04T04:11:21.044Z,2.04
2023-01-04T04:13:48.685Z,1.97
2023-01-04T04:16:15.799Z,1.92
2023-01-04T04:18:42.782Z,1.90
2023-01-04T04:21:09.357Z,1.85
2023-01-04T04:23:35.982Z,1.87
2023-01-04T04:26:02.547Z,1.85
2023-01-04T04:28:29.175Z,1.82
2023-01-04T04:30:55.795Z,1.80
2023-01-04T04:33:22.391Z,1.83
2023-01-04T04:35:53.573Z,1.86
2023-01-04T04:38:20.453Z,1.80
2023-01-04T04:41:06.391Z,1.78
2023-01-04T04:43:34.288Z,1.74
2023-01-04T04:46:01.254Z,1.70
2023-01-04T04:48:27.935Z,1.67
2023-01-04T04:50:54.548Z,1.77
2023-01-04T04:53:21.199Z,1.66
2023-01-04T04:55:51.078Z,1.63
2023-01-04T04:58:18.115Z,1.61
2023-01-04T05:00:44.721Z,1.55
2023-01-04T05:03:11.393Z,1.48
2023-01-04T05:05:38.055Z,1.46
2023-01-04T05:08:04.910Z,1.38
2023-01-04T05:10:31.540Z,1.40
2023-01-04T05:13:00.767Z,1.37
2023-01-04T05:15:29.631Z,1.44
2023-01-04T05:17:56.210Z,1.43
2023-01-04T05:20:22.877Z,1.48
2023-01-04T05:22:49.519Z,1.49
2023-01-04T05:25:16.440Z,1.43
2023-01-04T05:27:43.275Z,1.44
2023-01-04T05:30:32.174Z,1.42
2023-01-04T05:32:59.033Z,1.38
2023-01-04T05:35:25.725Z,1.33
2023-01-04T05:37:52.572Z,1.29
2023-01-04T05:40:19.313Z,1.25
2023-01-04T05:42:45.908Z,1.13
2023-01-04T05:45:13.849Z,1.16
2023-01-04T05:47:40.722Z,1.24
2023-01-04T05:50:08.468Z,1.29
2023-01-04T05:52:35.221Z,1.25
2023-01-04T05:55:02.208Z,1.24
2023-01-04T05:57:28.877Z,1.15
2023-01-04T05:59:55.440Z,1.15
2023-01-04T06:02:24.716Z,1.04
2023-01-04T06:04:58.129Z,1.04
2023-01-04T06:07:25.251Z,1.12
2023-01-04T06:09:51.824Z,1.14
2023-01-04T06:12:18.426Z,1.12
2023-01-04T06:14:44.980Z,1.08
2023-01-04T06:17:11.759Z,1.13
2023-01-04T06:19:38.421Z,1.18
2023-01-04T06:22:05.109Z,1.21
2023-01-04T06:24:31.774Z,1.23
2023-01-04T06:26:58.489Z,1.13
2023-01-04T06:29:25.044Z,1.10
2023-01-04T06:31:51.659Z,1.04
2023-01-04T06:34:18.246Z,1.03
2023-01-04T06:36:44.819Z,1.02
2023-01-04T06:39:11.494Z,0.99
2023-01-04T06:41:38.312Z,0.95
2023-01-04T06:44:04.975Z,0.97
2023-01-04T06:46:31.622Z,0.95
2023-01-04T06:48:58.271Z,0.93
2023-01-04T06:51:25.058Z,0.85
2023-01-04T06:53:51.662Z,0.81
2023-01-04T06:56:18.228Z,0.81
2023-01-04T06:58:44.819Z,0.86
2023-01-04T07:01:11.488Z,0.81
2023-01-04T07:03:38.177Z,0.84
2023-01-04T07:06:06.283Z,0.86
2023-01-04T07:08:33.707Z,0.81
2023-01-04T07:11:00.695Z,0.83
2023-01-04T07:13:27.302Z,0.84
2023-01-04T07:15:53.868Z,0.88
2023-01-04T07:18:20.576Z,0.92
2023-01-04T07:20:47.204Z,0.92
2023-01-04T07:23:13.814Z,0.98
2023-01-04T07:25:40.420Z,1.02
2023-01-04T07:28:07.096Z,1.07
2023-01-04T07:30:33.808Z,1.16
2023-01-04T07:33:00.420Z,1.22
2023-01-04T07:35:27.200Z,1.29
2023-01-04T07:37:58.295Z,1.37
2023-01-04T07:40:26.113Z,1.47
2023-01-04T07:42:59.567Z,1.61
2023-01-04T07:45:26.796Z,1.65
2023-01-04T07:47:53.528Z,1.72
2023-01-04T07:50:20.154Z,1.81
2023-01-04T07:52:46.769Z,1.76
2023-01-04T07:55:13.477Z,1.88
2023-01-04T07:57:40.047Z,1.94
2023-01-04T08:00:07.389Z,1.98
2023-01-04T08:02:38.928Z,2.06
2023-01-04T08:05:06.472Z,2.14
2023-01-04T08:07:33.195Z,2.16
2023-01-04T08:10:00.257Z,2.19
2023-01-04T08:12:26.933Z,2.30
2023-01-04T08:14:53.504Z,2.42
2023-01-04T08:17:20.064Z,2.48
2023-01-04T08:19:46.853Z,2.56
2023-01-04T08:22:14.012Z,2.61
2023-01-04T08:24:40.690Z,2.62
2023-01-04T08:27:08.345Z,2.71
2023-01-04T08:29:35.499Z,2.78
2023-01-04T08:32:02.371Z,2.88
2023-01-04T08:34:29.857Z,2.96
2023-01-04T08:36:56.665Z,3.06
2023-01-04T08:39:23.266Z,3.09
2023-01-04T08:42:00.459Z,3.18
2023-01-04T08:44:29.558Z,3.27
2023-01-04T08:46:56.307Z,3.36
2023-01-04T08:49:23.761Z,3.41
2023-01-04T08:51:50.606Z,3.47
2023-01-04T08:54:17.412Z,3.55
2023-01-04T08:56:44.410Z,3.65
2023-01-04T08:59:13.129Z,3.70
2023-01-04T09:01:40.927Z,3.86
2023-01-04T09:04:07.833Z,3.94
2023-01-04T09:06:34.567Z,4.08
2023-01-04T09:09:01.188Z,4.09
2023-01-04T09:11:28.384Z,4.17
2023-01-04T09:14:04.311Z,4.24
2023-01-04T09:16:33.350Z,4.39
2023-01-04T09:18:59.965Z,4.54
2023-01-04T09:21:26.621Z,4.60
2023-01-04T09:23:53.284Z,4.65
2023-01-04T09:26:22.334Z,4.73
2023-01-04T09:28:53.583Z,4.84
2023-01-04T09:31:22.687Z,4.90
2023-01-04T09:36:36.076Z,5.08
2023-01-04T09:39:04.922Z,5.16
2023-01-04T09:41:35.784Z,5.21
2023-01-04T09:44:05.957Z,5.32
2023-01-04T09:46:37.434Z,5.40
2023-01-04T09:49:11.259Z,5.43
2023-01-04T09:51:39.103Z,5.52
2023-01-04T09:54:15.425Z,5.58
2023-01-04T09:56:48.533Z,5.65
2023-01-04T09:59:17.023Z,5.81
2023-01-04T10:01:50.156Z,5.96
2023-01-04T10:04:25.561Z,6.14
2023-01-04T10:06:52.933Z,6.20
2023-01-04T10:09:19.984Z,6.33
2023-01-04T10:11:56.578Z,6.39
2023-01-04T10:14:48.511Z,6.51
2023-01-04T10:17:57.457Z,6.70
2023-01-04T10:23:59.048Z,6.99
2023-01-04T10:26:34.957Z,7.08
2023-01-04T10:29:25.142Z,7.19
2023-01-04T10:31:58.081Z,7.29
2023-01-04T10:34:33.733Z,7.45
2023-01-04T10:37:06.809Z,7.62
2023-01-04T10:39:36.088Z,7.70
2023-01-04T10:42:31.131Z,7.81
2023-01-04T10:45:27.342Z,7.87
2023-01-04T10:48:05.471Z,7.97
2023-01-04T10:50:59.831Z,8.11
2023-01-04T10:53:49.192Z,8.24
2023-01-04T10:56:27.372Z,8.24
2023-01-04T10:59:24.292Z,8.35
2023-01-04T11:01:55.868Z,8.46
2023-01-04T11:04:29.713Z,8.50
2023-01-04T11:06:59.657Z,8.61
2023-01-04T11:09:30.860Z,8.64
2023-01-04T11:11:57.907Z,8.71
2023-01-04T11:14:25.655Z,8.71
2023-01-04T11:16:56.893Z,8.80
2023-01-04T11:19:23.485Z,8.90
2023-01-04T11:21:57.090Z,9.08
2023-01-04T11:24:34.422Z,9.07
2023-01-04T11:27:13.489Z,9.10
2023-01-04T11:30:25.627Z,9.19
2023-01-04T11:32:55.962Z,9.23
2023-01-04T11:35:42.017Z,9.38
2023-01-04T11:38:19.519Z,9.41
2023-01-04T11:40:55.199Z,9.42
2023-01-04T11:43:22.875Z,9.44
2023-01-04T11:46:01.284Z,9.50
2023-01-04T11:48:33.111Z,9.53
2023-01-04T11:51:00.173Z,9.49
2023-01-04T11:53:28.710Z,9.57
2023-01-04T11:56:31.427Z,9.68
2023-01-04T11:59:24.833Z,9.76
2023-01-04T12:02:11.203Z,9.81
2023-01-04T12:04:38.017Z,9.88
2023-01-04T12:07:17.987Z,9.95
2023-01-04T12:09:44.601Z,9.95
2023-01-04T12:12:15.774Z,10.06
2023-01-04T12:14:48.044Z,10.13
2023-01-04T12:17:29.258Z,10.14
2023-01-04T12:19:57.226Z,10.17
2023-01-04T12:22:38.031Z,10.12
2023-01-04T12:25:09.348Z,10.20
2023-01-04T12:27:36.662Z,10.32
2023-01-04T12:30:06.071Z,10.31
2023-01-04T12:32:32.619Z,10.43
2023-01-04T12:34:59.216Z,10.33
2023-01-04T12:37:38.160Z,10.47
2023-01-04T12:40:43.113Z,10.51
2023-01-04T12:43:15.897Z,10.64
2023-01-04T12:45:46.419Z,10.56
2023-01-04T12:48:46.633Z,10.60
2023-01-04T12:51:33.393Z,10.74
2023-01-04T12:54:03.329Z,10.81
2023-01-04T12:57:07.825Z,10.79
2023-01-04T12:59:39.475Z,10.86
2023-01-04T13:02:33.872Z,10.96
2023-01-04T13:05:45.421Z,10.95
2023-01-04T13:07:55.073Z,10.89
2023-01-04T13:10:21.701Z,10.89
2023-01-04T13:13:03.588Z,10.91
2023-01-04T13:15:45.357Z,10.81
2023-01-04T13:18:35.086Z,10.89
2023-01-04T13:21:29.537Z,10.98
2023-01-04T13:23:58.524Z,10.99
2023-01-04T13:26:32.091Z,11.03
2023-01-04T13:29:19.651Z,11.07
2023-01-04T13:31:52.915Z,11.21
2023-01-04T13:34:24.386Z,11.29
2023-01-04T13:36:56.073Z,11.32
2023-01-04T13:39:22.979Z,11.43
2023-01-04T13:41:49.748Z,11.45
2023-01-04T13:47:37.032Z,11.44
2023-01-04T13:50:04.881Z,11.38
2023-01-04T13:52:59.968Z,11.44
2023-01-04T13:55:24.280Z,11.36
2023-01-04T13:57:56.335Z,11.25
2023-01-04T14:00:24.816Z,11.13
2023-01-04T14:03:14.970Z,11.11
2023-01-04T14:05:49.419Z,11.09
2023-01-04T14:08:26.810Z,11.04
2023-01-04T14:10:53.467Z,10.95
2023-01-04T14:13:20.737Z,10.84
2023-01-04T14:15:47.485Z,10.76
2023-01-04T14:18:28.695Z,10.63
2023-01-04T14:20:55.565Z,10.52
2023-01-04T14:23:38.690Z,10.40
2023-01-04T14:26:05.456Z,10.29
2023-01-04T14:28:41.839Z,10.19
2023-01-04T14:31:14.717Z,10.10
2023-01-04T14:33:46.662Z,10.02
2023-01-04T14:36:18.527Z,9.94
2023-01-04T14:39:06.371Z,9.82
2023-01-04T14:41:34.477Z,9.68
2023-01-04T14:44:00.972Z,9.64
2023-01-04T14:46:28.951Z,9.57
2023-01-04T14:48:55.620Z,9.45
2023-01-04T14:51:42.487Z,9.44
2023-01-04T14:54:11.815Z,9.55
2023-01-04T14:56:38.976Z,9.40
2023-01-04T14:59:05.796Z,9.26
2023-01-04T15:01:32.847Z,9.23
2023-01-04T15:04:00.134Z,9.23
2023-01-04T15:06:26.919Z,9.09
2023-01-04T15:08:53.672Z,9.16
2023-01-04T15:11:21.119Z,9.16
2023-01-04T15:13:47.965Z,9.02
2023-01-04T15:16:16.421Z,9.02
2023-01-04T15:18:46.262Z,9.00
2023-01-04T15:21:13.119Z,8.89
2023-01-04T15:23:40.336Z,8.84
2023-01-04T15:26:08.623Z,8.79
2023-01-04T15:28:35.599Z,8.81
2023-01-04T15:31:10.213Z,8.79
2023-01-04T15:33:37.392Z,8.82
2023-01-04T15:36:24.144Z,8.81
2023-01-04T15:38:55.117Z,8.72
2023-01-04T15:41:40.407Z,8.66
2023-01-04T15:44:09.800Z,8.63
2023-01-04T15:46:36.528Z,8.51
2023-01-04T15:49:03.179Z,8.45
2023-01-04T15:51:29.796Z,8.44
2023-01-04T15:53:56.710Z,8.47
2023-01-04T15:56:23.469Z,8.44
2023-01-04T15:58:54.750Z,8.58
2023-01-04T16:01:22.206Z,8.47
2023-01-04T16:03:53.403Z,8.39
2023-01-04T16:06:21.329Z,8.47
2023-01-04T16:08:49.648Z,8.33
2023-01-04T16:11:18.297Z,8.33
2023-01-04T16:13:45.803Z,8.23
2023-01-04T16:16:12.786Z,8.14
2023-01-04T16:18:39.480Z,8.14
2023-01-04T16:21:07.620Z,8.12
2023-01-04T16:23:35.406Z,8.13
2023-01-04T16:26:13.188Z,8.06
2023-01-04T16:28:40.620Z,8.14
2023-01-04T16:31:08.159Z,8.09
2023-01-04T16:33:35.841Z,8.03
2023-01-04T16:36:06.705Z,8.02
2023-01-04T16:38:38.117Z,8.02
2023-01-04T16:41:06.090Z,7.99
2023-01-04T16:43:32.838Z,7.87
2023-01-04T16:46:16.241Z,7.90
2023-01-04T16:48:44.043Z,7.87
2023-01-04T16:51:11.019Z,7.79
2023-01-04T16:53:38.057Z,7.74
2023-01-04T16:56:09.111Z,7.73
2023-01-04T16:58:36.083Z,7.65
2023-01-04T17:01:10.038Z,7.62
2023-01-04T17:03:37.223Z,7.70
2023-01-04T17:06:21.542Z,7.66
2023-01-04T17:08:50.117Z,7.64
2023-01-04T17:12:36.368Z,7.64
2023-01-04T17:14:24.885Z,7.65
2023-01-04T17:16:52.555Z,7.58
2023-01-04T17:19:19.349Z,7.57
2023-01-04T17:21:46.276Z,7.55
2023-01-04T17:24:13.121Z,7.52
2023-01-04T17:26:40.583Z,7.46
2023-01-04T17:29:07.466Z,7.47
2023-01-04T17:31:36.752Z,7.42
2023-01-04T17:34:03.734Z,7.40
2023-01-04T17:36:30.358Z,7.39
2023-01-04T17:38:59.321Z,7.37
2023-01-04T17:41:27.230Z,7.38
2023-01-04T17:43:59.917Z,7.32
2023-01-04T17:46:31.897Z,7.30
2023-01-04T17:49:31.826Z,7.26
2023-01-04T17:51:47.642Z,7.23
2023-01-04T17:54:14.252Z,7.19
2023-01-04T17:56:40.861Z,7.10
2023-01-04T17:59:07.575Z,7.13
2023-01-04T18:01:35.132Z,7.14
2023-01-04T18:04:05.440Z,7.11
2023-01-04T18:06:36.134Z,7.09
2023-01-04T18:09:06.355Z,7.12
2023-01-04T18:11:34.054Z,7.04
2023-01-04T18:14:05.773Z,7.04
2023-01-04T18:16:56.659Z,7.05
2023-01-04T18:19:28.624Z,7.05
2023-01-04T18:21:55.670Z,7.19
2023-01-04T18:24:39.020Z,7.13
2023-01-04T18:27:25.582Z,6.99
2023-01-04T18:29:54.191Z,6.96
2023-01-04T18:32:21.624Z,6.98
2023-01-04T18:34:48.319Z,7.03
2023-01-04T18:37:16.173Z,7.06
2023-01-04T18:39:43.059Z,7.03
2023-01-04T18:42:09.615Z,7.13
2023-01-04T18:44:38.668Z,7.24
2023-01-04T18:47:07.758Z,7.25
2023-01-04T18:49:34.303Z,7.24
2023-01-04T18:52:00.984Z,7.25
2023-01-04T18:54:27.573Z,7.25
2023-01-04T18:57:00.401Z,7.24
2023-01-04T18:59:29.139Z,7.26
2023-01-04T19:02:01.530Z,7.23
2023-01-04T19:04:30.394Z,7.25
2023-01-04T19:06:57.002Z,7.27
2023-01-04T19:09:23.681Z,7.28
2023-01-04T19:11:50.418Z,7.28
2023-01-04T19:14:17.261Z,7.36
2023-01-04T19:16:44.000Z,7.43
2023-01-04T19:19:11.077Z,7.46
2023-01-04T19:21:37.838Z,7.49
2023-01-04T19:24:04.624Z,7.50
2023-01-04T19:26:31.179Z,7.62
2023-01-04T19:28:57.763Z,7.57
2023-01-04T19:31:24.321Z,7.64
2023-01-04T19:33:50.900Z,7.63
2023-01-04T19:36:18.751Z,7.72
2023-01-04T19:38:45.845Z,7.82
2023-01-04T19:41:21.024Z,7.80
2023-01-04T19:43:48.383Z,7.80
2023-01-04T19:46:15.463Z,7.92
2023-01-04T19:48:42.892Z,8.02
2023-01-04T19:51:12.582Z,8.01
2023-01-04T19:53:39.587Z,7.92
2023-01-04T19:56:06.973Z,7.93
2023-01-04T19:58:33.899Z,8.07
2023-01-04T20:01:00.605Z,8.01
2023-01-04T20:03:27.278Z,8.06
2023-01-04T20:05:54.355Z,8.10
2023-01-04T20:08:21.422Z,8.03
2023-01-04T20:10:55.662Z,8.07
2023-01-04T20:13:22.386Z,8.02
2023-01-04T20:15:48.986Z,8.08
2023-01-04T20:18:15.588Z,8.07
2023-01-04T20:20:46.354Z,8.05
2023-01-04T20:23:13.841Z,8.10
2023-01-04T20:25:42.207Z,8.04
2023-01-04T20:28:08.827Z,8.01
2023-01-04T20:30:35.479Z,8.09
2023-01-04T20:33:02.251Z,8.00
2023-01-04T20:35:29.112Z,8.02
2023-01-04T20:37:57.666Z,8.01
2023-01-04T20:40:25.401Z,7.93
2023-01-04T20:43:10.743Z,7.93
2023-01-04T20:45:44.930Z,7.85
2023-01-04T20:48:12.031Z,7.85
2023-01-04T20:50:39.245Z,7.85
2023-01-04T20:53:06.460Z,7.85
2023-01-04T20:55:40.114Z,7.84
2023-01-04T20:58:08.974Z,7.87
2023-01-04T21:00:37.059Z,7.90
2023-01-04T21:03:05.376Z,7.90
2023-01-04T21:05:36.729Z,7.96
2023-01-04T21:08:03.476Z,7.91
2023-01-04T21:10:30.081Z,7.91
2023-01-04T21:12:59.013Z,7.94
2023-01-04T21:15:25.952Z,7.89
2023-01-04T21:17:52.564Z,7.92
2023-01-04T21:20:21.483Z,7.98
2023-01-04T21:22:48.143Z,7.91
2023-01-04T21:25:14.810Z,7.97
2023-01-04T21:27:41.371Z,7.97
2023-01-04T21:30:08.310Z,8.04
2023-01-04T21:32:34.857Z,8.08
2023-01-04T21:35:01.987Z,7.99
2023-01-04T21:37:29.407Z,8.08
2023-01-04T21:39:55.957Z,8.13
2023-01-04T21:42:22.586Z,8.01
2023-01-04T21:44:49.134Z,8.09
2023-01-04T21:47:15.841Z,8.12
2023-01-04T21:49:44.002Z,8.16
2023-01-04T21:52:11.140Z,8.17
2023-01-04T21:54:38.459Z,8.21
2023-01-04T21:57:08.080Z,8.18
2023-01-04T21:59:35.811Z,8.13
2023-01-04T22:02:02.455Z,8.14
2023-01-04T22:04:29.202Z,8.23
2023-01-04T22:06:55.783Z,8.24
2023-01-04T22:09:22.479Z,8.19
2023-01-04T22:11:50.157Z,8.21
2023-01-04T22:14:17.929Z,8.22
2023-01-04T22:16:44.570Z,8.24
2023-01-04T22:19:14.852Z,8.22
2023-01-04T22:21:42.444Z,8.27
2023-01-04T22:24:13.178Z,8.23
2023-01-04T22:26:40.917Z,8.33
2023-01-04T22:29:07.666Z,8.31
2023-01-04T22:31:34.466Z,8.32
2023-01-04T22:34:01.206Z,8.28
2023-01-04T22:36:27.800Z,8.28
2023-01-04T22:38:56.058Z,8.21
2023-01-04T22:41:25.100Z,8.17
2023-01-04T22:44:03.417Z,8.24
2023-01-04T22:46:31.524Z,8.25
2023-01-04T22:48:59.193Z,8.22
2023-01-04T22:51:29.087Z,8.24
2023-01-04T22:53:58.602Z,8.23
2023-01-04T22:56:26.111Z,8.10
2023-01-04T22:58:55.358Z,8.08
2023-01-04T23:01:36.582Z,8.26
2023-01-04T23:04:03.752Z,8.03
2023-01-04T23:06:31.856Z,8.06
2023-01-04T23:08:59.186Z,8.06
2023-01-04T23:11:27.721Z,8.06
2023-01-04T23:13:54.342Z,8.13
2023-01-04T23:16:26.235Z,8.22
2023-01-04T23:18:56.491Z,8.16
2023-01-04T23:21:23.160Z,8.14
2023-01-04T23:23:50.786Z,8.13
2023-01-04T23:26:19.870Z,8.13
2023-01-04T23:28:47.031Z,8.18
2023-01-04T23:31:16.173Z,8.20
2023-01-04T23:33:42.783Z,8.25
2023-01-04T23:36:11.660Z,8.34
2023-01-04T23:38:38.720Z,8.32
2023-01-04T23:41:05.942Z,8.30
2023-01-04T23:43:34.769Z,8.40
2023-01-04T23:46:07.847Z,8.40
2023-01-04T23:48:34.605Z,8.42
2023-01-04T23:51:01.185Z,8.41
2023-01-04T23:53:27.801Z,8.43
2023-01-04T23:55:56.784Z,8.44
2023-01-04T23:58:24.093Z,8.50
